KUGN/UGN METAR and TAF weather

Enter ICAO airport designator
Station Type Date Time Source
KUGN METAR 2021/01/17 19:55 UTC NOAA

KUGN 171955Z 30003KT 10SM BKN023 BKN038 OVC090 02/M04 A2966 RMK AO2 SLP055 T00171039


Station Type Date Time Source
KUGN Decoded METAR 2021/01/17 19:55 UTC NOAA

CHICAGO/WAUKEGAN REGIONAL, IL, United States (KUGN) 42-25N 087-52W
Jan 17, 2021 - 02:55 PM EST / 2021.01.17 1955 UTC
Wind: from the WNW (300 degrees) at 3 MPH (3 KT):0
Visibility: 10 mile(s):0
Sky conditions: overcast
Temperature: 35.1 F (1.7 C)
Dew Point: 25.0 F (-3.9 C)
Relative Humidity: 66%
Pressure (altimeter): 29.66 in. Hg (1004 hPa)
ob: KUGN 171955Z 30003KT 10SM BKN023 BKN038 OVC090 02/M04 A2966 RMK AO2 SLP055 T00171039
cycle: 20

Station Type Date Time Source
KUGN TAF UTC NOAA

Error!

Example: see airport list